Weihnachten

Liebe Flugschüler, Charterer und Kunden.

Wir bedanken uns für die gute Zusammenarbeit.

Im Namen der gesamten Firma wünsche ich Ihnen und Ihren Familien eine wunderschöne Weihnachtszeit und einen guten Rutsch.

Auf ein gutes neues Jahr !!!

Ihr Sabionski Christian

Flugwetter Augsburg

[source: ADDS]
METAR
EDMA 040620Z VRB01KT CAVOK 03/01 Q1022 =
TAF
Cookies erleichtern die Bereitstellung unserer Dienste. Mit der Nutzung unserer Dienste erklären Sie sich damit einverstanden, dass wir Cookies verwenden.
Weitere Informationen Ok